createdAt,value
2018-06-23T01:22:09.193Z,24.93
2018-06-23T01:24:37.678Z,29.77
2018-06-23T01:27:06.042Z,26.70
2018-06-23T01:29:34.389Z,49.93
2018-06-23T01:32:02.767Z,25.50
2018-06-23T01:34:31.174Z,33.10
2018-06-23T01:36:59.535Z,37.27
2018-06-23T01:39:27.867Z,27.93
2018-06-23T01:41:56.349Z,48.47
2018-06-23T01:44:24.789Z,35.53
2018-06-23T01:46:53.265Z,31.17
2018-06-23T01:49:21.629Z,24.80
2018-06-23T01:51:49.955Z,35.67
2018-06-23T01:54:18.296Z,31.13
2018-06-23T01:56:46.666Z,37.60
2018-06-23T01:59:15.026Z,43.10
2018-06-23T02:01:43.465Z,40.10
2018-06-23T02:04:11.809Z,33.37
2018-06-23T02:06:40.184Z,31.43
2018-06-23T02:09:09.671Z,35.37
2018-06-23T02:11:38.073Z,32.43
2018-06-23T02:14:11.814Z,26.03
2018-06-23T02:16:45.549Z,36.17
2018-06-23T02:21:20.329Z,26.17
2018-06-23T02:23:54.022Z,50.07
2018-06-23T02:26:27.609Z,48.10
2018-06-23T02:29:01.285Z,28.77
2018-06-23T02:31:34.907Z,28.57
2018-06-23T02:34:08.554Z,30.27
2018-06-23T02:36:36.902Z,40.43
2018-06-23T02:39:10.204Z,39.57
2018-06-23T02:41:38.582Z,26.97
2018-06-23T02:44:07.046Z,49.40
2018-06-23T02:46:35.478Z,35.07
2018-06-23T02:49:03.819Z,34.17
2018-06-23T02:51:32.209Z,28.53
2018-06-23T02:54:00.646Z,33.67
2018-06-23T02:56:28.981Z,37.37
2018-06-23T02:58:57.369Z,35.30
2018-06-23T03:01:25.768Z,36.90
2018-06-23T03:03:54.123Z,39.23
2018-06-23T03:06:22.470Z,67.97
2018-06-23T03:08:50.816Z,43.20
2018-06-23T03:11:19.239Z,38.20
2018-06-23T03:13:47.780Z,27.30
2018-06-23T03:16:16.161Z,35.60
2018-06-23T03:18:44.470Z,43.57
2018-06-23T03:21:12.832Z,34.40
2018-06-23T03:23:41.359Z,37.50
2018-06-23T03:26:09.813Z,28.50
2018-06-23T03:28:38.164Z,40.40
2018-06-23T03:31:06.560Z,29.73
2018-06-23T03:33:34.959Z,29.13
2018-06-23T03:36:03.318Z,37.83
2018-06-23T03:38:31.668Z,48.10
2018-06-23T03:41:00.035Z,45.60
2018-06-23T03:43:28.369Z,26.53
2018-06-23T03:45:56.726Z,46.03
2018-06-23T03:48:25.115Z,48.70
2018-06-23T03:50:53.474Z,32.07
2018-06-23T03:53:21.795Z,41.73
2018-06-23T03:55:50.192Z,41.30
2018-06-23T03:58:18.517Z,36.60
2018-06-23T04:00:52.136Z,52.33
2018-06-23T04:03:20.483Z,39.20
2018-06-23T04:05:48.933Z,37.00
2018-06-23T04:08:17.681Z,27.97
2018-06-23T04:10:46.039Z,48.67
2018-06-23T04:13:14.369Z,63.20
2018-06-23T04:15:42.899Z,39.00
2018-06-23T04:18:11.226Z,46.53
2018-06-23T04:20:39.661Z,41.13
2018-06-23T04:23:08.082Z,33.67
2018-06-23T04:25:36.459Z,34.43
2018-06-23T04:28:04.810Z,24.20
2018-06-23T04:30:33.156Z,34.80
2018-06-23T04:33:01.538Z,45.77
2018-06-23T04:35:29.938Z,29.20
2018-06-23T04:37:58.350Z,50.53
2018-06-23T04:40:26.732Z,24.73
2018-06-23T04:42:55.151Z,48.30
2018-06-23T04:45:23.706Z,43.37
2018-06-23T04:47:52.122Z,44.27
2018-06-23T04:50:20.527Z,31.13
2018-06-23T04:52:48.853Z,47.37
2018-06-23T04:55:17.405Z,34.00
2018-06-23T04:57:46.091Z,22.63
2018-06-23T05:00:14.475Z,39.87
2018-06-23T05:02:42.955Z,38.23
2018-06-23T05:05:11.356Z,35.90
2018-06-23T05:07:39.758Z,30.93
2018-06-23T05:10:08.195Z,39.70
2018-06-23T05:12:36.602Z,28.77
2018-06-23T05:15:05.055Z,47.90
2018-06-23T05:17:33.720Z,35.33
2018-06-23T05:20:02.334Z,36.53
2018-06-23T05:22:30.799Z,24.97
2018-06-23T05:24:59.248Z,37.80
2018-06-23T05:27:27.683Z,60.67
2018-06-23T05:29:56.100Z,50.60
2018-06-23T05:32:24.687Z,38.13
2018-06-23T05:34:53.195Z,30.53
2018-06-23T05:37:21.937Z,40.13
2018-06-23T05:39:50.414Z,28.23
2018-06-23T05:42:18.855Z,46.70
2018-06-23T05:44:47.245Z,31.40
2018-06-23T05:47:15.573Z,49.17
2018-06-23T05:49:44.029Z,45.23
2018-06-23T05:52:12.510Z,36.30
2018-06-23T05:54:41.000Z,32.53
2018-06-23T05:57:09.398Z,29.23
2018-06-23T05:59:37.769Z,32.00
2018-06-23T06:02:06.334Z,37.23
2018-06-23T06:04:34.756Z,38.80
2018-06-23T06:07:03.145Z,47.40
2018-06-23T06:09:31.682Z,37.87
2018-06-23T06:12:00.279Z,30.27
2018-06-23T06:14:28.702Z,31.37
2018-06-23T06:17:30.701Z,44.70
2018-06-23T06:20:00.439Z,38.10
2018-06-23T06:22:30.350Z,29.40
2018-06-23T06:24:58.749Z,19.33
2018-06-23T06:27:27.145Z,28.70
2018-06-23T06:29:55.770Z,30.17
2018-06-23T06:32:24.574Z,32.03
2018-06-23T06:34:53.041Z,28.77
2018-06-23T06:37:21.433Z,42.27
2018-06-23T06:42:51.178Z,32.57
2018-06-23T06:45:20.319Z,37.97
2018-06-23T06:47:48.645Z,32.17
2018-06-23T06:50:17.051Z,35.00
2018-06-23T06:52:45.463Z,27.10
2018-06-23T06:55:14.487Z,33.17
2018-06-23T06:57:43.049Z,29.43
2018-06-23T07:00:11.430Z,23.83
2018-06-23T07:02:39.839Z,36.57
2018-06-23T07:05:08.239Z,25.27
2018-06-23T07:07:36.578Z,33.87
2018-06-23T07:10:04.995Z,32.27
2018-06-23T07:12:33.392Z,22.10
2018-06-23T07:15:01.794Z,23.93
2018-06-23T07:17:30.504Z,19.27
2018-06-23T07:19:58.851Z,33.13
2018-06-23T07:22:27.604Z,28.53
2018-06-23T07:24:57.914Z,27.10
2018-06-23T07:27:26.663Z,28.83
2018-06-23T07:29:56.281Z,27.43
2018-06-23T07:32:25.068Z,28.10
2018-06-23T07:34:53.971Z,53.20
2018-06-23T07:37:22.977Z,24.97
2018-06-23T07:39:55.893Z,24.83
2018-06-23T07:42:24.505Z,25.40
2018-06-23T07:44:55.572Z,27.20
2018-06-23T07:47:30.394Z,26.27
2018-06-23T07:49:59.265Z,22.00
2018-06-23T07:52:29.125Z,14.40
2018-06-23T07:55:00.608Z,20.57
2018-06-23T07:57:40.215Z,31.00
2018-06-23T08:00:10.627Z,24.90
2018-06-23T08:02:40.397Z,29.00
2018-06-23T08:05:12.044Z,27.97
2018-06-23T08:07:41.622Z,20.20
2018-06-23T08:10:11.459Z,33.27
2018-06-23T08:15:38.604Z,21.17
2018-06-23T08:18:08.408Z,38.07
2018-06-23T08:20:40.224Z,37.30
2018-06-23T08:23:11.975Z,29.00
2018-06-23T08:25:40.603Z,34.13
2018-06-23T08:28:09.153Z,25.53
2018-06-23T08:30:38.596Z,25.80
2018-06-23T08:33:07.237Z,34.07
2018-06-23T08:35:36.799Z,27.33
2018-06-23T08:38:05.742Z,28.33
2018-06-23T08:40:34.216Z,18.53
2018-06-23T08:43:02.730Z,29.23
2018-06-23T08:45:31.518Z,32.73
2018-06-23T08:48:00.364Z,15.43
2018-06-23T08:50:29.618Z,25.03
2018-06-23T08:53:01.393Z,22.67
2018-06-23T08:55:32.600Z,26.13
2018-06-23T08:58:02.228Z,24.53
2018-06-23T09:00:30.853Z,26.63
2018-06-23T09:02:59.436Z,21.03
2018-06-23T09:05:28.290Z,26.13
2018-06-23T09:07:56.847Z,39.17
2018-06-23T09:10:25.405Z,26.40
2018-06-23T09:12:54.118Z,22.67
2018-06-23T09:15:22.697Z,28.33
2018-06-23T09:17:52.135Z,27.47
2018-06-23T09:20:22.249Z,26.57
2018-06-23T09:22:54.510Z,21.80
2018-06-23T09:25:26.492Z,17.97
2018-06-23T09:27:58.866Z,29.63
2018-06-23T09:30:28.447Z,19.77
2018-06-23T09:32:57.399Z,15.40
2018-06-23T09:35:29.554Z,21.87
2018-06-23T09:37:58.301Z,26.80
2018-06-23T09:40:27.769Z,22.50
2018-06-23T09:42:55.893Z,28.17
2018-06-23T09:45:24.425Z,22.40
2018-06-23T09:47:57.268Z,23.53
2018-06-23T09:50:28.999Z,18.00
2018-06-23T09:52:57.810Z,13.33
2018-06-23T09:55:28.627Z,16.63
2018-06-23T09:57:57.226Z,25.10
2018-06-23T10:00:28.539Z,28.53
2018-06-23T10:03:04.064Z,27.03
2018-06-23T10:05:34.325Z,25.10
2018-06-23T10:08:08.608Z,16.60
2018-06-23T10:13:21.705Z,10.63
2018-06-23T10:15:53.445Z,28.63
2018-06-23T10:18:45.375Z,25.80
2018-06-23T10:21:25.602Z,14.57
2018-06-23T10:24:03.614Z,22.93
2018-06-23T10:26:33.523Z,18.70
2018-06-23T10:29:14.504Z,16.93
2018-06-23T10:31:47.624Z,11.83
2018-06-23T10:34:17.316Z,26.67
2018-06-23T10:36:50.529Z,18.77
2018-06-23T10:39:23.672Z,28.87
2018-06-23T10:41:52.217Z,36.60
2018-06-23T10:44:22.025Z,13.83
2018-06-23T10:46:50.723Z,23.87
2018-06-23T10:49:20.653Z,27.97
2018-06-23T10:51:52.417Z,14.63
2018-06-23T11:49:02.216Z,19.00
2018-06-23T11:51:36.773Z,12.70
2018-06-23T11:54:33.195Z,9.90
2018-06-23T11:57:04.072Z,8.83
2018-06-23T11:59:34.809Z,15.83
2018-06-23T12:02:16.857Z,8.10
2018-06-23T12:04:52.183Z,8.40
2018-06-23T12:07:25.003Z,16.40
2018-06-23T12:09:57.334Z,10.83
2018-06-23T12:15:28.493Z,15.67
2018-06-23T12:17:59.156Z,16.27
2018-06-23T12:20:38.578Z,22.17
2018-06-23T12:23:13.542Z,7.60
2018-06-23T12:28:28.266Z,4.23
2018-06-23T12:30:59.082Z,3.13
2018-06-23T12:38:32.336Z,6.07
2018-06-23T12:41:01.148Z,7.63
2018-06-23T12:43:29.418Z,6.53
2018-06-23T12:45:57.766Z,7.00
2018-06-23T12:48:30.842Z,5.83
2018-06-23T12:50:59.361Z,9.50
2018-06-23T12:53:28.685Z,9.37
2018-06-23T12:55:57.214Z,3.87
2018-06-23T12:58:25.810Z,20.90
2018-06-23T13:00:54.566Z,16.50
2018-06-23T13:03:23.009Z,9.47
2018-06-23T13:05:51.357Z,12.10
2018-06-23T13:08:29.968Z,17.90
2018-06-23T13:10:59.447Z,10.17
2018-06-23T13:13:29.765Z,13.33
2018-06-23T13:16:00.502Z,27.77
2018-06-23T13:18:29.769Z,15.60
2018-06-23T13:20:58.439Z,13.13
2018-06-23T13:23:30.217Z,16.27
2018-06-23T13:25:58.969Z,27.13
2018-06-23T13:28:29.996Z,21.00
2018-06-23T13:30:59.535Z,8.77
2018-06-23T13:33:28.217Z,11.23
2018-06-23T13:35:56.725Z,19.50
2018-06-23T13:38:25.584Z,19.20
2018-06-23T13:41:01.353Z,10.53
2018-06-23T13:43:31.493Z,22.37
2018-06-23T13:46:00.085Z,9.43
2018-06-23T13:48:28.476Z,32.40
2018-06-23T13:50:57.105Z,10.20
2018-06-23T13:53:25.605Z,13.77
2018-06-23T13:55:54.610Z,119.03
2018-06-23T13:58:24.531Z,15.77
2018-06-23T14:00:52.980Z,15.93
2018-06-23T14:03:22.531Z,13.00
2018-06-23T14:05:51.769Z,21.97
2018-06-23T14:08:20.441Z,15.93
2018-06-23T14:10:48.883Z,13.77
2018-06-23T14:13:17.349Z,22.80
2018-06-23T14:15:45.836Z,7.07
2018-06-23T14:18:14.333Z,16.47
2018-06-23T14:20:42.775Z,10.97
2018-06-23T14:23:11.402Z,14.90
2018-06-23T14:25:40.191Z,10.10
2018-06-23T14:28:09.966Z,8.07
2018-06-23T14:30:42.500Z,14.23
2018-06-23T14:33:11.630Z,9.43
2018-06-23T14:35:40.958Z,12.33
2018-06-23T14:38:11.450Z,8.17
2018-06-23T14:40:41.418Z,3.67
2018-06-23T14:43:10.041Z,2.97
2018-06-23T14:45:38.473Z,10.67
2018-06-23T14:48:06.858Z,11.20
2018-06-23T14:50:35.221Z,6.63
2018-06-23T14:53:03.883Z,10.20
2018-06-23T14:55:32.226Z,6.97
2018-06-23T14:58:01.086Z,4.47
2018-06-23T15:00:30.103Z,5.80
2018-06-23T15:02:58.525Z,11.33
2018-06-23T15:05:27.943Z,10.00
2018-06-23T15:08:06.846Z,5.70
2018-06-23T15:10:46.538Z,8.73
2018-06-23T15:13:17.049Z,7.80
2018-06-23T15:15:46.252Z,6.63
2018-06-23T15:18:14.630Z,15.03
2018-06-23T15:20:43.719Z,8.40
2018-06-23T15:23:13.102Z,7.90
2018-06-23T15:25:42.003Z,20.20
2018-06-23T15:28:11.015Z,7.90
2018-06-23T15:30:39.887Z,8.90
2018-06-23T15:33:08.391Z,14.80
2018-06-23T15:35:37.086Z,8.83
2018-06-23T15:38:05.720Z,16.50
2018-06-23T15:40:34.194Z,8.83
2018-06-23T15:43:02.853Z,7.13
2018-06-23T15:45:31.397Z,15.83
2018-06-23T15:47:59.842Z,10.93
2018-06-23T15:50:28.348Z,13.40
2018-06-23T15:52:57.319Z,8.03
2018-06-23T15:55:25.927Z,19.13
2018-06-23T15:57:54.410Z,17.77
2018-06-23T16:00:23.326Z,8.80
2018-06-23T16:02:51.760Z,15.40
2018-06-23T16:05:20.298Z,17.13
2018-06-23T16:07:48.692Z,7.70
2018-06-23T16:10:23.209Z,12.77
2018-06-23T16:12:51.835Z,17.60
2018-06-23T16:15:20.306Z,5.30
2018-06-23T16:17:48.970Z,11.60
2018-06-23T16:20:17.501Z,7.10
2018-06-23T16:22:46.922Z,9.83
2018-06-23T16:25:15.633Z,11.20
2018-06-23T16:27:44.197Z,12.60
2018-06-23T16:30:12.694Z,10.13
2018-06-23T16:32:41.312Z,10.13
2018-06-23T16:35:10.300Z,11.87
2018-06-23T16:37:38.410Z,11.77
2018-06-23T16:40:07.350Z,9.17
2018-06-23T16:42:35.829Z,6.20
2018-06-23T16:45:04.577Z,12.63
2018-06-23T16:47:33.149Z,9.97
2018-06-23T16:50:02.088Z,11.47
2018-06-23T16:52:30.536Z,15.60
2018-06-23T16:54:59.151Z,12.37
2018-06-23T16:57:28.105Z,12.10
2018-06-23T16:59:56.454Z,12.60
2018-06-23T17:02:24.900Z,12.10
2018-06-23T17:04:53.293Z,12.40
2018-06-23T17:07:21.877Z,6.90
2018-06-23T17:09:52.570Z,4.07
2018-06-23T17:12:21.334Z,5.60
2018-06-23T17:14:51.677Z,4.13
2018-06-23T17:17:20.181Z,25.93
2018-06-23T17:19:49.995Z,5.27
2018-06-23T17:22:18.528Z,4.97
2018-06-23T17:24:47.123Z,11.83
2018-06-23T17:27:15.982Z,10.43
2018-06-23T17:29:44.226Z,10.77
2018-06-23T17:32:12.827Z,11.53
2018-06-23T17:34:41.212Z,11.10
2018-06-23T17:37:09.809Z,21.30
2018-06-23T17:39:38.191Z,15.60
2018-06-23T17:42:06.585Z,12.40
2018-06-23T17:44:35.288Z,16.10
2018-06-23T17:47:03.722Z,23.40
2018-06-23T17:49:32.029Z,9.43
2018-06-23T17:52:00.374Z,11.67
2018-06-23T17:54:28.751Z,11.33
2018-06-23T17:56:57.144Z,18.30
2018-06-23T17:59:25.516Z,9.43
2018-06-23T18:01:53.925Z,12.33
2018-06-23T18:04:22.341Z,9.97
2018-06-23T18:06:50.879Z,16.20
2018-06-23T18:09:19.281Z,19.13
2018-06-23T18:11:47.616Z,13.63
2018-06-23T18:14:16.259Z,10.67
2018-06-23T18:16:44.653Z,11.50
2018-06-23T18:19:12.980Z,14.43
2018-06-23T18:21:41.356Z,9.00
2018-06-23T18:24:09.707Z,7.80
2018-06-23T18:26:38.097Z,10.13
2018-06-23T18:29:06.457Z,6.30
2018-06-23T18:31:34.879Z,14.63
2018-06-23T18:34:03.226Z,15.10
2018-06-23T18:36:31.590Z,14.70
